Time;durP1;ratioP1;P1;durP2;ratioP2;P2;SDS_P1;SDS_P2;PMS_P1;PMS_P2;Temp;Humidity;BMP_temperature;BMP_pressure;BME280_temperature;BME280_humidity;BME280_pressure;Samples;Min_cycle;Max_cycle;Signal;HPM_P1;HPM_P2
2023/03/23 00:00:41;;;;;;;;;;;;;;;9.44;83.19;100419.75;4960109;28;19944;-73
2023/03/23 00:03:07;;;;;;;;;;;;;;;9.32;84.47;100419.22;4944263;28;19946;-73
2023/03/23 00:05:32;;;;;;;;;;;;;;;9.25;85.10;100422.19;4970952;28;20058;-72
2023/03/23 00:07:59;;;;;;;;;;;;;;;9.23;85.58;100419.78;4973880;28;19976;-72
2023/03/23 00:10:25;;;;;;;;;;;;;;;9.18;85.96;100403.75;4972140;28;20340;-75
2023/03/23 00:12:51;;;;;;;;;;;;;;;9.17;86.54;100406.69;4948705;28;19952;-72
2023/03/23 00:15:19;;;;;;;;;;;;;;;9.16;86.79;100413.09;4974492;28;19941;-71
2023/03/23 00:17:44;;;;;;;;;;;;;;;9.17;87.00;100414.72;4977907;28;19957;-72
2023/03/23 00:20:12;;;;;;;;;;;;;;;9.16;87.30;100407.75;4980798;28;19944;-71
2023/03/23 00:22:38;;;;;;;;;;;;;;;9.08;87.98;100405.59;4997856;28;20397;-75
2023/03/23 00:25:05;;;;;;;;;;;;;;;9.08;88.05;100413.63;4961082;28;20589;-71
2023/03/23 00:27:30;;;;;;;;;;;;;;;9.06;88.26;100410.41;4994955;28;19966;-74
2023/03/23 00:29:59;;;;;;;;;;;;;;;9.02;88.29;100402.97;4972774;28;19935;-73
2023/03/23 00:32:28;;;;;;;;;;;;;;;9.03;88.39;100407.22;4979662;28;19944;-73
2023/03/23 00:34:54;;;;;;;;;;;;;;;9.02;88.73;100404.84;4979781;28;19943;-73
2023/03/23 00:37:22;;;;;;;;;;;;;;;8.99;88.92;100395.47;4974996;28;19976;-73
2023/03/23 00:39:48;;;;;;;;;;;;;;;8.99;88.95;100395.47;4973647;28;19993;-73
2023/03/23 00:42:14;;;;;;;;;;;;;;;8.97;89.24;100392.25;4956571;28;20443;-74
2023/03/23 00:44:40;;;;;;;;;;;;;;;8.97;89.29;100386.13;4982823;28;20023;-74
2023/03/23 00:47:08;;;;;;;;;;;;;;;8.99;89.33;100390.13;4961073;28;20007;-72
2023/03/23 00:49:34;;;;;;;;;;;;;;;9.01;89.23;100389.88;4958705;28;19941;-73
2023/03/23 00:52:00;;;;;;;;;;;;;;;9.03;89.29;100377.03;4972990;28;19983;-72
2023/03/23 00:54:26;;;;;;;;;;;;;;;9.00;89.62;100358.88;4975523;28;19934;-72
2023/03/23 00:56:52;;;;;;;;;;;;;;;9.02;89.38;100341.53;4974851;28;19942;-72
2023/03/23 00:59:17;;;;;;;;;;;;;;;9.00;89.49;100326.81;4975931;28;20054;-72
2023/03/23 01:01:43;;;;;;;;;;;;;;;9.02;89.41;100335.38;4968160;28;20468;-75
2023/03/23 01:04:11;;;;;;;;;;;;;;;8.97;89.70;100335.38;4979281;28;19944;-73
2023/03/23 01:06:39;;;;;;;;;;;;;;;8.99;89.69;100343.91;4984291;28;19987;-73
2023/03/23 01:09:05;;;;;;;;;;;;;;;9.01;89.66;100339.13;4970773;28;20831;-73
2023/03/23 01:11:31;;;;;;;;;;;;;;;8.95;89.83;100338.31;4974365;28;19940;-72
2023/03/23 01:13:57;;;;;;;;;;;;;;;8.93;90.17;100331.63;4949452;28;20023;-72
2023/03/23 01:16:23;;;;;;;;;;;;;;;8.95;89.88;100319.63;4974183;28;20041;-73
2023/03/23 01:18:49;;;;;;;;;;;;;;;8.89;90.22;100310.03;4954849;28;19963;-73
2023/03/23 01:21:16;;;;;;;;;;;;;;;8.91;90.18;100302.53;4955616;28;19944;-73
2023/03/23 01:23:42;;;;;;;;;;;;;;;8.86;90.10;100294.50;4958558;28;19945;-73
2023/03/23 01:26:09;;;;;;;;;;;;;;;8.87;89.89;100298.78;4975610;28;20589;-72
2023/03/23 01:28:35;;;;;;;;;;;;;;;8.87;90.21;100301.44;4957648;28;19966;-72
2023/03/23 01:31:01;;;;;;;;;;;;;;;8.85;90.17;100295.59;4976268;28;20444;-73
2023/03/23 01:33:28;;;;;;;;;;;;;;;8.84;90.43;100299.34;4957767;28;20342;-73
2023/03/23 01:35:53;;;;;;;;;;;;;;;8.86;90.47;100293.72;4957497;28;19936;-73
2023/03/23 01:38:19;;;;;;;;;;;;;;;8.79;90.50;100288.66;4977345;28;20419;-74
2023/03/23 01:40:45;;;;;;;;;;;;;;;8.85;90.52;100292.13;4978940;28;19932;-74
2023/03/23 01:43:13;;;;;;;;;;;;;;;8.87;90.30;100284.63;4975484;28;19942;-73
2023/03/23 01:45:40;;;;;;;;;;;;;;;8.87;90.46;100285.44;4996235;28;19970;-72
2023/03/23 01:48:08;;;;;;;;;;;;;;;8.88;90.36;100280.91;4976854;28;19966;-74
2023/03/23 01:50:37;;;;;;;;;;;;;;;8.80;90.79;100284.91;4978979;28;20044;-74
2023/03/23 01:53:08;;;;;;;;;;;;;;;8.86;90.68;100283.84;4969070;28;19941;-74
2023/03/23 01:55:36;;;;;;;;;;;;;;;8.84;90.89;100280.66;4958952;28;19940;-73
2023/03/23 01:58:02;;;;;;;;;;;;;;;8.89;90.62;100277.97;4963184;28;20375;-74
2023/03/23 02:00:30;;;;;;;;;;;;;;;8.87;90.86;100266.75;4990911;28;19974;-73
2023/03/23 02:02:57;;;;;;;;;;;;;;;8.88;90.79;100267.56;4989879;28;20361;-73
2023/03/23 02:05:29;;;;;;;;;;;;;;;8.92;90.64;100264.06;4951160;28;19937;-73
2023/03/23 02:07:59;;;;;;;;;;;;;;;8.92;90.74;100258.72;4947650;28;20338;-73
2023/03/23 02:10:25;;;;;;;;;;;;;;;8.91;90.88;100267.00;4979846;28;19943;-73
2023/03/23 02:12:51;;;;;;;;;;;;;;;8.93;90.86;100273.69;4973814;28;20370;-72
2023/03/23 02:15:22;;;;;;;;;;;;;;;8.95;90.86;100262.75;4971534;28;19946;-73
2023/03/23 02:18:08;;;;;;;;;;;;;;;8.98;90.90;100264.88;4996578;28;19952;-74
2023/03/23 02:20:49;;;;;;;;;;;;;;;9.06;90.41;100258.16;4959472;28;20142;-73
2023/03/23 02:23:15;;;;;;;;;;;;;;;9.06;90.52;100263.50;4981886;28;19980;-72
2023/03/23 02:25:56;;;;;;;;;;;;;;;9.08;90.52;100256.00;4984306;28;19935;-73
2023/03/23 02:28:21;;;;;;;;;;;;;;;9.10;90.60;100252.03;4981244;28;19969;-72
2023/03/23 02:30:52;;;;;;;;;;;;;;;9.13;90.40;100250.66;4959069;28;19986;-72
2023/03/23 02:33:18;;;;;;;;;;;;;;;9.14;90.69;100246.91;4976780;28;20466;-73
2023/03/23 02:35:46;;;;;;;;;;;;;;;9.16;90.66;100252.81;4982925;28;19959;-72
2023/03/23 02:38:28;;;;;;;;;;;;;;;9.19;90.56;100244.25;4962278;28;19952;-72
2023/03/23 02:40:55;;;;;;;;;;;;;;;9.20;90.48;100246.63;4963250;28;19937;-73
2023/03/23 02:43:22;;;;;;;;;;;;;;;9.21;90.52;100234.06;4981553;28;19942;-73
2023/03/23 02:45:54;;;;;;;;;;;;;;;9.18;90.95;100231.97;4969453;28;19943;-73
2023/03/23 02:48:22;;;;;;;;;;;;;;;9.17;90.63;100233.03;4978562;28;20435;-71
2023/03/23 02:50:50;;;;;;;;;;;;;;;9.21;90.77;100236.75;4962741;28;20023;-72
2023/03/23 02:53:19;;;;;;;;;;;;;;;9.19;90.80;100236.22;4978322;28;19937;-70
2023/03/23 02:55:45;;;;;;;;;;;;;;;9.17;90.97;100225.03;4959986;28;19990;-73
2023/03/23 02:58:15;;;;;;;;;;;;;;;9.15;90.97;100222.63;4965079;28;20334;-73
2023/03/23 03:00:42;;;;;;;;;;;;;;;9.20;91.08;100224.47;4961794;28;20319;-74
2023/03/23 03:03:12;;;;;;;;;;;;;;;9.22;90.92;100217.00;4959441;28;20043;-74
2023/03/23 03:06:04;;;;;;;;;;;;;;;9.25;90.67;100216.44;4997104;28;19957;-72
2023/03/23 03:08:39;;;;;;;;;;;;;;;9.22;91.03;100212.44;4963180;28;19965;-72
2023/03/23 03:11:11;;;;;;;;;;;;;;;9.19;91.13;100204.16;4962156;28;19980;-73
2023/03/23 03:13:47;;;;;;;;;;;;;;;9.24;90.92;100209.50;4965211;28;20398;-73
2023/03/23 03:16:12;;;;;;;;;;;;;;;9.25;90.74;100217.22;4961326;28;20021;-72
2023/03/23 03:18:43;;;;;;;;;;;;;;;9.27;90.60;100216.94;4979925;28;20043;-73
2023/03/23 03:21:12;;;;;;;;;;;;;;;9.31;90.50;100204.66;4983738;28;19939;-72
2023/03/23 03:23:42;;;;;;;;;;;;;;;9.34;90.10;100188.06;4969861;28;19947;-72
2023/03/23 03:26:10;;;;;;;;;;;;;;;9.29;90.45;100174.75;4971715;28;20024;-72
2023/03/23 03:28:47;;;;;;;;;;;;;;;9.25;90.46;100173.69;4977503;28;19969;-73
2023/03/23 03:31:15;;;;;;;;;;;;;;;9.22;90.52;100147.53;4960790;28;19932;-75
2023/03/23 03:33:40;;;;;;;;;;;;;;;9.24;90.43;100158.72;4960435;28;19933;-72
2023/03/23 03:36:14;;;;;;;;;;;;;;;9.22;90.39;100153.66;4968006;28;19954;-74
2023/03/23 03:38:44;;;;;;;;;;;;;;;9.25;90.28;100166.47;4948129;28;19954;-74
2023/03/23 03:41:12;;;;;;;;;;;;;;;9.24;90.29;100148.03;4962157;28;19950;-73
2023/03/23 03:43:38;;;;;;;;;;;;;;;9.22;90.17;100142.97;4983066;28;19970;-73
2023/03/23 03:46:06;;;;;;;;;;;;;;;9.21;90.20;100140.56;4959743;28;20051;-74
2023/03/23 03:48:32;;;;;;;;;;;;;;;9.27;90.16;100134.91;4981756;28;20104;-73
2023/03/23 03:51:00;;;;;;;;;;;;;;;9.24;89.92;100135.47;4982194;28;20499;-73
2023/03/23 03:53:30;;;;;;;;;;;;;;;9.23;89.89;100147.25;4982402;28;19945;-72
2023/03/23 03:55:59;;;;;;;;;;;;;;;9.27;90.00;100147.47;4961652;28;19939;-73
2023/03/23 03:58:31;;;;;;;;;;;;;;;9.24;89.95;100151.50;5000769;28;19950;-72
2023/03/23 04:01:22;;;;;;;;;;;;;;;9.27;89.90;100150.16;4981469;28;19986;-72
2023/03/23 04:03:48;;;;;;;;;;;;;;;9.29;89.75;100148.03;4964573;28;20048;-72
2023/03/23 04:06:21;;;;;;;;;;;;;;;9.37;89.51;100154.66;4968901;28;20207;-73
2023/03/23 04:08:47;;;;;;;;;;;;;;;9.37;89.32;100157.34;4983885;28;20203;-73
2023/03/23 04:11:13;;;;;;;;;;;;;;;9.40;89.38;100149.56;4958815;28;20028;-73
2023/03/23 04:13:39;;;;;;;;;;;;;;;9.35;89.59;100146.94;4967801;28;19945;-73
2023/03/23 04:16:16;;;;;;;;;;;;;;;9.35;89.25;100151.44;4945712;28;19976;-73
2023/03/23 04:18:43;;;;;;;;;;;;;;;9.32;89.42;100155.47;4997394;28;19992;-72
2023/03/23 04:21:08;;;;;;;;;;;;;;;9.33;89.42;100165.09;4965501;28;20001;-72
2023/03/23 04:23:35;;;;;;;;;;;;;;;9.36;89.61;100158.41;4968162;28;19944;-72
2023/03/23 04:26:03;;;;;;;;;;;;;;;9.34;89.60;100166.69;4962143;28;19949;-72
2023/03/23 04:28:34;;;;;;;;;;;;;;;9.43;89.04;100159.72;4963695;28;19983;-71
2023/03/23 04:31:18;;;;;;;;;;;;;;;9.30;89.41;100160.31;4982595;28;20027;-72
2023/03/23 04:33:52;;;;;;;;;;;;;;;9.31;89.30;100172.59;4980010;28;19937;-73
2023/03/23 04:36:18;;;;;;;;;;;;;;;9.29;89.50;100169.41;4964029;28;20128;-73
2023/03/23 04:38:54;;;;;;;;;;;;;;;9.35;89.10;100173.66;4967438;28;19976;-73
2023/03/23 04:41:24;;;;;;;;;;;;;;;9.39;88.89;100169.34;4959475;28;19945;-72
2023/03/23 04:44:02;;;;;;;;;;;;;;;9.47;88.25;100171.44;4977791;28;20033;-73
2023/03/23 04:46:49;;;;;;;;;;;;;;;9.43;88.62;100162.38;4980478;28;20549;-71
2023/03/23 04:49:21;;;;;;;;;;;;;;;9.65;87.00;100155.84;4943819;28;20503;-72
2023/03/23 04:51:52;;;;;;;;;;;;;;;9.91;85.45;100153.78;4967433;28;19935;-72
2023/03/23 04:54:35;;;;;;;;;;;;;;;9.84;85.76;100149.56;4968765;28;19939;-71
2023/03/23 04:57:00;;;;;;;;;;;;;;;9.87;85.56;100152.72;4980644;28;19939;-72
2023/03/23 04:59:27;;;;;;;;;;;;;;;9.95;84.35;100144.91;4984287;28;19966;-72
2023/03/23 05:02:07;;;;;;;;;;;;;;;9.82;85.40;100145.53;4988806;28;19950;-72
2023/03/23 05:04:33;;;;;;;;;;;;;;;9.87;84.81;100152.72;4949186;28;20403;-73
2023/03/23 05:07:07;;;;;;;;;;;;;;;9.87;85.22;100142.84;4966174;28;20683;-73
2023/03/23 05:09:37;;;;;;;;;;;;;;;9.75;85.85;100145.06;4956810;28;19982;-73
2023/03/23 05:12:04;;;;;;;;;;;;;;;9.74;86.20;100138.91;4964443;28;19988;-72
2023/03/23 05:14:30;;;;;;;;;;;;;;;9.72;86.14;100133.06;4977595;28;20573;-73
2023/03/23 05:17:03;;;;;;;;;;;;;;;9.73;86.29;100144.53;4962037;28;19968;-71
2023/03/23 05:19:29;;;;;;;;;;;;;;;9.76;85.99;100146.69;4981239;28;19933;-73
2023/03/23 05:22:02;;;;;;;;;;;;;;;9.68;86.14;100129.31;4980497;28;19934;-73
2023/03/23 05:24:33;;;;;;;;;;;;;;;9.67;86.60;100133.06;4966470;28;19935;-74
2023/03/23 05:27:02;;;;;;;;;;;;;;;9.66;86.65;100144.06;4982720;28;20649;-73
2023/03/23 05:29:32;;;;;;;;;;;;;;;9.61;86.69;100144.09;4969303;28;19934;-73
2023/03/23 05:31:59;;;;;;;;;;;;;;;9.55;87.01;100146.81;4945758;28;20694;-74
2023/03/23 05:34:26;;;;;;;;;;;;;;;9.60;86.89;100137.94;4985236;28;19985;-74
2023/03/23 05:36:57;;;;;;;;;;;;;;;9.63;86.38;100149.97;4963798;28;19936;-75
2023/03/23 05:39:45;;;;;;;;;;;;;;;9.61;86.59;100149.44;4981372;28;19941;-74
2023/03/23 05:42:29;;;;;;;;;;;;;;;9.62;86.73;100145.69;4967608;28;20399;-72
2023/03/23 05:45:04;;;;;;;;;;;;;;;9.63;86.52;100152.66;4978396;28;19935;-73
2023/03/23 05:47:30;;;;;;;;;;;;;;;9.58;86.39;100138.22;4965532;28;19966;-72
2023/03/23 05:50:02;;;;;;;;;;;;;;;9.63;86.25;100125.91;4970776;28;19940;-73
2023/03/23 05:52:32;;;;;;;;;;;;;;;9.64;86.24;100143.53;4980734;28;20040;-73
2023/03/23 05:54:57;;;;;;;;;;;;;;;9.65;86.12;100134.44;4965465;28;19938;-73
2023/03/23 05:57:26;;;;;;;;;;;;;;;9.58;86.37;100130.22;4976940;28;20073;-74
2023/03/23 06:00:11;;;;;;;;;;;;;;;9.55;86.42;100136.13;4979959;28;20334;-73
2023/03/23 06:02:38;;;;;;;;;;;;;;;9.57;86.19;100128.59;4979981;28;19947;-73
2023/03/23 06:05:04;;;;;;;;;;;;;;;9.56;86.36;100131.56;4960493;28;20471;-72
2023/03/23 06:07:32;;;;;;;;;;;;;;;9.50;86.44;100136.16;4986053;28;19976;-74
2023/03/23 06:10:01;;;;;;;;;;;;;;;9.54;86.12;100134.50;4945793;28;20420;-75
2023/03/23 06:12:39;;;;;;;;;;;;;;;9.48;86.20;100130.28;4978842;28;19938;-73
2023/03/23 06:15:17;;;;;;;;;;;;;;;9.47;86.29;100117.16;4977793;28;19958;-73
2023/03/23 06:18:06;;;;;;;;;;;;;;;9.46;86.29;100132.41;4960221;28;19970;-76
2023/03/23 06:20:43;;;;;;;;;;;;;;;9.44;86.41;100136.44;4980432;28;20701;-75
2023/03/23 06:23:39;;;;;;;;;;;;;;;9.53;85.88;100121.41;4982931;28;19936;-73
2023/03/23 06:26:09;;;;;;;;;;;;;;;9.48;86.11;100138.31;4958173;28;20147;-72
2023/03/23 06:28:38;;;;;;;;;;;;;;;9.55;85.75;100138.78;4967954;28;19962;-73
2023/03/23 06:31:06;;;;;;;;;;;;;;;9.51;86.05;100134.25;4965069;28;20356;-73
2023/03/23 06:33:34;;;;;;;;;;;;;;;9.45;86.32;100132.69;4966856;28;19935;-73
2023/03/23 06:36:18;;;;;;;;;;;;;;;9.51;85.85;100134.25;4976326;28;19988;-73
2023/03/23 06:39:01;;;;;;;;;;;;;;;9.57;85.59;100133.97;4963668;28;19956;-73
2023/03/23 06:41:40;;;;;;;;;;;;;;;9.60;85.31;100139.81;4972626;28;20039;-73
2023/03/23 06:44:13;;;;;;;;;;;;;;;9.63;85.19;100141.94;4978488;28;20364;-73
2023/03/23 06:46:40;;;;;;;;;;;;;;;9.72;84.69;100145.63;4979960;28;19941;-73
2023/03/23 06:49:28;;;;;;;;;;;;;;;9.73;84.69;100140.00;4975168;28;19962;-73
2023/03/23 06:52:03;;;;;;;;;;;;;;;9.80;84.10;100148.50;4967208;28;19994;-74
2023/03/23 06:54:30;;;;;;;;;;;;;;;9.87;83.67;100152.72;4985035;28;20410;-73
2023/03/23 06:56:58;;;;;;;;;;;;;;;9.92;83.45;100140.13;4971382;28;19935;-75
2023/03/23 06:59:23;;;;;;;;;;;;;;;9.98;83.27;100139.00;4960616;28;20334;-77
2023/03/23 07:01:49;;;;;;;;;;;;;;;9.98;83.39;100143.56;4959192;28;19938;-74
2023/03/23 07:04:16;;;;;;;;;;;;;;;10.08;82.80;100138.91;4974787;28;19949;-72
2023/03/23 07:06:59;;;;;;;;;;;;;;;10.13;82.45;100133.53;4965003;28;19953;-75
2023/03/23 07:09:25;;;;;;;;;;;;;;;10.20;82.32;100127.06;4975530;28;20540;-72
2023/03/23 07:11:52;;;;;;;;;;;;;;;10.30;81.55;100121.66;4959127;28;19943;-75
2023/03/23 07:14:31;;;;;;;;;;;;;;;10.25;81.55;100127.03;4980573;28;19940;-74
2023/03/23 07:16:57;;;;;;;;;;;;;;;10.36;81.19;100139.22;4958181;28;19937;-75
2023/03/23 07:19:23;;;;;;;;;;;;;;;10.38;81.55;100129.06;4963590;28;19954;-75
2023/03/23 07:21:49;;;;;;;;;;;;;;;10.58;80.15;100142.25;4946739;28;20236;-75
2023/03/23 07:24:16;;;;;;;;;;;;;;;10.66;79.64;100144.28;4982058;28;19952;-73
2023/03/23 07:27:05;;;;;;;;;;;;;;;10.80;79.17;100138.25;4965851;28;19954;-73
2023/03/23 07:29:34;;;;;;;;;;;;;;;10.99;78.57;100136.41;4963978;28;19939;-73
2023/03/23 07:32:10;;;;;;;;;;;;;;;11.11;78.14;100136.81;4980412;28;20320;-74
2023/03/23 07:34:37;;;;;;;;;;;;;;;11.23;78.37;100148.97;4978415;28;20026;-73
2023/03/23 07:37:32;;;;;;;;;;;;;;;11.02;78.14;100154.59;4993929;28;19972;-73
2023/03/23 07:39:58;;;;;;;;;;;;;;;10.93;78.99;100148.28;4962648;28;19945;-74
2023/03/23 07:42:24;;;;;;;;;;;;;;;10.97;78.26;100145.81;4963911;28;19946;-73
2023/03/23 07:44:56;;;;;;;;;;;;;;;11.08;78.31;100150.75;4964552;28;20416;-73
2023/03/23 07:47:21;;;;;;;;;;;;;;;11.06;77.82;100157.50;4975098;28;20007;-73
2023/03/23 07:49:48;;;;;;;;;;;;;;;11.08;78.14;100150.75;4961754;28;19942;-74
2023/03/23 07:52:36;;;;;;;;;;;;;;;11.11;78.02;100160.13;4977550;28;19948;-73
2023/03/23 07:55:04;;;;;;;;;;;;;;;11.11;78.02;100160.13;4977001;28;19945;-73
2023/03/23 07:57:49;;;;;;;;;;;;;;;11.11;78.02;100157.44;4964955;28;19961;-71
2023/03/23 08:00:19;;;;;;;;;;;;;;;11.23;77.52;100146.28;4951219;28;19944;-73
2023/03/23 08:02:55;;;;;;;;;;;;;;;11.25;77.80;100162.91;4993464;28;20035;-73
2023/03/23 08:05:21;;;;;;;;;;;;;;;11.36;77.34;100156.31;4975419;28;19945;-74
2023/03/23 08:08:08;;;;;;;;;;;;;;;11.36;77.53;100154.41;4963009;28;19964;-75
2023/03/23 08:10:53;;;;;;;;;;;;;;;11.36;77.81;100161.66;4976287;28;19971;-73
2023/03/23 08:13:45;;;;;;;;;;;;;;;11.49;77.10;100160.94;4976171;28;20002;-73
2023/03/23 08:16:18;;;;;;;;;;;;;;;11.15;79.01;100180.69;4975572;28;19940;-73
2023/03/23 08:19:02;;;;;;;;;;;;;;;10.82;81.29;100176.25;4973951;28;19997;-72
2023/03/23 08:21:46;;;;;;;;;;;;;;;10.67;83.62;100177.22;4983718;28;19983;-73
2023/03/23 08:24:24;;;;;;;;;;;;;;;10.52;84.10;100175.50;4957208;28;19961;-74
2023/03/23 08:27:24;;;;;;;;;;;;;;;10.58;84.54;100189.63;4973182;28;19965;-75
2023/03/23 08:30:20;;;;;;;;;;;;;;;10.62;84.55;100188.78;4956898;28;19938;-74
2023/03/23 08:32:55;;;;;;;;;;;;;;;10.66;85.23;100200.53;4973532;28;20429;-74
2023/03/23 08:35:44;;;;;;;;;;;;;;;10.69;84.28;100211.75;4980950;28;19935;-74
2023/03/23 08:38:30;;;;;;;;;;;;;;;10.59;83.76;100204.63;4963417;28;19963;-73
2023/03/23 08:41:19;;;;;;;;;;;;;;;10.49;84.75;100208.16;4963736;28;20036;-72
2023/03/23 08:44:10;;;;;;;;;;;;;;;10.51;82.85;100206.03;4959487;28;19943;-73
2023/03/23 08:47:00;;;;;;;;;;;;;;;10.54;81.86;100192.06;4965606;28;19974;-73
2023/03/23 08:49:54;;;;;;;;;;;;;;;10.53;81.33;100190.47;4966655;28;19937;-73
2023/03/23 08:52:45;;;;;;;;;;;;;;;10.50;81.03;100203.63;4966017;28;19940;-72
2023/03/23 08:55:20;;;;;;;;;;;;;;;10.51;80.75;100203.34;4959832;28;19977;-73
2023/03/23 08:58:09;;;;;;;;;;;;;;;10.58;79.51;100219.88;4952159;28;19987;-72
2023/03/23 09:00:49;;;;;;;;;;;;;;;10.71;79.98;100207.72;4979228;28;20032;-74
2023/03/23 09:03:48;;;;;;;;;;;;;;;10.70;76.56;100214.13;4949407;28;19939;-72
2023/03/23 09:06:20;;;;;;;;;;;;;;;10.72;77.60;100219.22;4975020;28;19958;-76
2023/03/23 09:08:45;;;;;;;;;;;;;;;10.76;76.56;100222.91;4978155;28;20025;-72
2023/03/23 09:11:11;;;;;;;;;;;;;;;10.92;76.93;100216.34;4977936;28;19941;-73
2023/03/23 09:13:38;;;;;;;;;;;;;;;10.98;75.24;100223.25;4974636;28;19968;-75
2023/03/23 09:16:04;;;;;;;;;;;;;;;11.05;75.55;100225.59;4954629;28;19941;-72
2023/03/23 09:18:32;;;;;;;;;;;;;;;11.00;75.36;100207.66;4973083;28;20853;-73
2023/03/23 09:20:58;;;;;;;;;;;;;;;10.89;74.98;100217.69;4998127;28;19987;-73
2023/03/23 09:23:24;;;;;;;;;;;;;;;10.90;75.22;100224.63;4980111;28;19977;-73
2023/03/23 09:25:51;;;;;;;;;;;;;;;10.85;74.64;100232.75;4961647;28;20534;-76
2023/03/23 09:28:16;;;;;;;;;;;;;;;10.84;77.05;100244.56;4959435;28;19996;-73
2023/03/23 09:30:43;;;;;;;;;;;;;;;10.80;75.86;100240.81;4971518;28;20417;-76
2023/03/23 09:33:11;;;;;;;;;;;;;;;10.77;76.06;100251.28;4976389;28;19947;-75
2023/03/23 09:35:38;;;;;;;;;;;;;;;10.70;76.15;100243.59;4992867;28;19937;-73
2023/03/23 09:38:07;;;;;;;;;;;;;;;10.62;76.06;100245.00;4958295;28;19959;-74
2023/03/23 09:40:40;;;;;;;;;;;;;;;10.66;76.66;100258.63;4955877;28;20423;-76
2023/03/23 09:43:08;;;;;;;;;;;;;;;10.77;76.36;100251.28;4978452;28;19935;-75
2023/03/23 09:45:37;;;;;;;;;;;;;;;10.80;76.50;100256.09;4976655;28;19946;-75
2023/03/23 09:48:28;;;;;;;;;;;;;;;10.77;75.39;100259.31;4974725;28;20007;-73
2023/03/23 09:51:00;;;;;;;;;;;;;;;10.89;75.92;100265.13;4977233;28;19948;-73
2023/03/23 09:53:34;;;;;;;;;;;;;;;11.02;75.02;100253.72;4960291;28;19996;-74
2023/03/23 09:56:01;;;;;;;;;;;;;;;11.07;74.38;100260.94;4973612;28;20830;-75
2023/03/23 09:58:30;;;;;;;;;;;;;;;10.89;75.68;100265.13;4947635;28;19962;-73
2023/03/23 10:01:04;;;;;;;;;;;;;;;10.87;74.36;100267.28;4973982;28;19946;-75
2023/03/23 10:03:37;;;;;;;;;;;;;;;11.10;73.03;100277.22;4994774;28;20001;-75
2023/03/23 10:06:03;;;;;;;;;;;;;;;11.46;73.35;100268.81;4974621;28;19939;-74
2023/03/23 10:08:31;;;;;;;;;;;;;;;11.40;72.69;100267.25;4997952;28;19958;-73
2023/03/23 10:11:08;;;;;;;;;;;;;;;11.51;73.35;100274.06;4971160;28;19969;-74
2023/03/23 10:13:39;;;;;;;;;;;;;;;11.51;72.87;100276.75;4978867;28;19946;-73
2023/03/23 10:16:09;;;;;;;;;;;;;;;11.52;73.79;100280.28;4981056;28;20619;-72
2023/03/23 10:18:43;;;;;;;;;;;;;;;11.31;72.94;100279.69;4976208;28;19961;-74
2023/03/23 10:21:16;;;;;;;;;;;;;;;11.20;73.44;100287.84;4962282;28;19993;-73
2023/03/23 10:23:54;;;;;;;;;;;;;;;11.39;72.42;100282.56;4978395;28;19935;-74
2023/03/23 10:26:26;;;;;;;;;;;;;;;11.68;73.02;100293.19;5004138;28;19971;-73
2023/03/23 10:28:54;;;;;;;;;;;;;;;11.62;72.44;100288.97;4979485;28;19959;-73
2023/03/23 10:31:23;;;;;;;;;;;;;;;11.80;72.63;100290.09;4973313;28;19985;-70
2023/03/23 10:33:50;;;;;;;;;;;;;;;11.78;71.73;100289.56;4979800;28;19939;-74
2023/03/23 10:36:19;;;;;;;;;;;;;;;11.61;72.36;100287.38;4960941;28;19943;-74
2023/03/23 10:38:48;;;;;;;;;;;;;;;11.73;71.57;100279.72;4967720;28;19967;-72
2023/03/23 10:41:16;;;;;;;;;;;;;;;11.68;70.71;100287.81;4981238;28;19946;-73
2023/03/23 10:43:43;;;;;;;;;;;;;;;11.76;71.16;100289.84;4968648;28;19931;-74
2023/03/23 10:46:29;;;;;;;;;;;;;;;11.66;70.92;100308.78;4969079;28;20414;-73
2023/03/23 10:48:58;;;;;;;;;;;;;;;11.53;71.48;100312.16;4968301;28;19955;-73
2023/03/23 10:51:27;;;;;;;;;;;;;;;11.69;72.35;100315.44;4999802;28;19944;-73
2023/03/23 10:53:57;;;;;;;;;;;;;;;11.72;72.15;100310.31;4981340;28;19939;-73
2023/03/23 10:56:35;;;;;;;;;;;;;;;12.08;71.41;100317.91;4979973;28;20038;-74
2023/03/23 10:59:11;;;;;;;;;;;;;;;11.97;71.49;100322.63;4978337;28;20451;-73
2023/03/23 11:01:36;;;;;;;;;;;;;;;12.09;71.14;100322.19;4980734;28;19943;-72
2023/03/23 11:04:04;;;;;;;;;;;;;;;12.11;70.82;100320.00;4972984;28;19997;-72
2023/03/23 11:06:33;;;;;;;;;;;;;;;12.18;71.73;100316.97;4980080;28;19941;-74
2023/03/23 11:09:18;;;;;;;;;;;;;;;12.21;71.44;100317.19;4960787;28;19963;-74
2023/03/23 11:11:52;;;;;;;;;;;;;;;12.23;72.24;100320.38;4996035;28;19942;-73
2023/03/23 11:14:19;;;;;;;;;;;;;;;12.34;71.52;100318.38;4998763;28;20488;-72
2023/03/23 11:16:49;;;;;;;;;;;;;;;12.47;70.50;100319.53;4955590;28;20380;-73
2023/03/23 11:19:20;;;;;;;;;;;;;;;12.38;69.76;100326.63;4979600;28;19963;-74
2023/03/23 11:21:51;;;;;;;;;;;;;;;12.60;70.09;100324.16;4982321;28;19936;-73
2023/03/23 11:24:17;;;;;;;;;;;;;;;12.47;71.43;100328.38;4979427;28;19984;-73
2023/03/23 11:26:44;;;;;;;;;;;;;;;12.35;70.97;100321.84;4985087;28;19994;-73
2023/03/23 11:29:23;;;;;;;;;;;;;;;12.32;70.64;100317.03;4981731;28;19982;-73
2023/03/23 11:31:52;;;;;;;;;;;;;;;12.51;70.77;100331.25;4963943;28;20399;-73
2023/03/23 11:34:22;;;;;;;;;;;;;;;12.48;70.65;100329.16;4980303;28;19947;-74
2023/03/23 11:36:50;;;;;;;;;;;;;;;12.58;70.08;100332.47;4977033;28;19976;-73
2023/03/23 11:39:20;;;;;;;;;;;;;;;12.54;70.01;100330.69;4976925;28;19962;-73
2023/03/23 11:41:46;;;;;;;;;;;;;;;12.46;69.99;100336.69;4958822;28;20353;-74
2023/03/23 11:44:12;;;;;;;;;;;;;;;12.91;69.64;100345.94;4961351;28;19947;-74
2023/03/23 11:46:50;;;;;;;;;;;;;;;12.84;69.28;100335.56;4976792;28;20581;-73
2023/03/23 11:49:21;;;;;;;;;;;;;;;12.76;69.79;100338.91;4979376;28;20016;-73
2023/03/23 11:51:49;;;;;;;;;;;;;;;13.09;68.47;100337.03;4978257;28;19938;-73
2023/03/23 11:54:19;;;;;;;;;;;;;;;12.67;67.82;100334.53;4981966;28;20030;-74
2023/03/23 11:56:46;;;;;;;;;;;;;;;12.48;69.74;100348.75;4979030;28;19941;-73
2023/03/23 11:59:17;;;;;;;;;;;;;;;12.38;70.13;100353.47;4958940;28;20540;-73
2023/03/23 12:01:46;;;;;;;;;;;;;;;12.15;70.91;100366.69;4956873;28;19948;-73
2023/03/23 12:04:12;;;;;;;;;;;;;;;12.09;70.82;100349.03;4979871;28;19939;-77
2023/03/23 12:06:45;;;;;;;;;;;;;;;11.97;71.06;100359.38;4982566;28;19960;-73
2023/03/23 12:09:18;;;;;;;;;;;;;;;11.97;71.70;100362.06;4974751;28;19968;-73
2023/03/23 12:12:02;;;;;;;;;;;;;;;12.14;72.63;100358.91;4966373;28;19934;-74
2023/03/23 12:14:31;;;;;;;;;;;;;;;12.39;71.61;100361.22;4975578;28;20326;-73
2023/03/23 12:17:10;;;;;;;;;;;;;;;12.38;71.16;100358.84;4984687;28;19942;-72
2023/03/23 12:19:36;;;;;;;;;;;;;;;12.21;71.87;100373.56;4975740;28;20036;-73
2023/03/23 12:22:05;;;;;;;;;;;;;;;11.94;72.74;100365.34;4956075;28;19978;-73
2023/03/23 12:24:31;;;;;;;;;;;;;;;12.03;73.25;100374.34;4977973;28;19941;-72
2023/03/23 12:27:01;;;;;;;;;;;;;;;11.94;73.21;100365.34;4957044;28;20360;-73
2023/03/23 12:29:37;;;;;;;;;;;;;;;11.73;73.33;100364.75;4977494;28;19959;-72
2023/03/23 12:32:19;;;;;;;;;;;;;;;11.64;74.31;100356.53;4982634;28;19963;-72
2023/03/23 12:35:01;;;;;;;;;;;;;;;11.58;74.11;100352.31;4975274;28;20043;-73
2023/03/23 12:37:27;;;;;;;;;;;;;;;11.84;74.11;100354.72;4962693;28;19938;-72
2023/03/23 12:40:06;;;;;;;;;;;;;;;11.98;73.61;100358.31;4975469;28;19943;-74
2023/03/23 12:42:32;;;;;;;;;;;;;;;12.05;73.50;100361.44;4947465;28;19940;-73
2023/03/23 12:45:13;;;;;;;;;;;;;;;11.86;73.49;100350.69;4956186;28;20307;-74
2023/03/23 12:47:39;;;;;;;;;;;;;;;12.20;72.66;100357.75;4991867;28;19971;-72
2023/03/23 12:50:09;;;;;;;;;;;;;;;12.43;72.00;100356.88;4953638;28;19957;-72
2023/03/23 12:52:45;;;;;;;;;;;;;;;12.86;70.80;100343.31;4967353;28;19936;-72
2023/03/23 12:55:38;;;;;;;;;;;;;;;12.95;68.78;100343.47;4973426;28;20362;-73
2023/03/23 12:58:13;;;;;;;;;;;;;;;12.44;70.37;100333.50;4962738;28;19954;-73
2023/03/23 13:00:48;;;;;;;;;;;;;;;12.75;69.82;100320.41;4976807;28;20666;-73
2023/03/23 13:03:30;;;;;;;;;;;;;;;12.88;69.82;100334.97;4964258;28;19979;-72
2023/03/23 13:06:13;;;;;;;;;;;;;;;14.18;67.20;100337.31;4955945;28;19938;-74